Time;durP1;ratioP1;P1;durP2;ratioP2;P2;SDS_P1;SDS_P2;PMS_P1;PMS_P2;Temp;Humidity;BMP_temperature;BMP_pressure;BME280_temperature;BME280_humidity;BME280_pressure;Samples;Min_cycle;Max_cycle;Signal;HPM_P1;HPM_P2
2022/02/18 00:00:54;;;;;;;3.78;2.35;;;;;;;;;;5024987;28;20029;-59
2022/02/18 00:03:21;;;;;;;4.22;2.25;;;;;;;;;;5031376;28;20028;-59
2022/02/18 00:05:47;;;;;;;4.93;2.60;;;;;;;;;;5045266;28;20543;-59
2022/02/18 00:08:13;;;;;;;4.72;2.40;;;;;;;;;;5045884;28;20581;-59
2022/02/18 00:10:43;;;;;;;6.57;2.97;;;;;;;;;;5045631;28;20420;-59
2022/02/18 00:13:09;;;;;;;3.03;2.05;;;;;;;;;;5045954;28;20028;-59
2022/02/18 00:15:35;;;;;;;2.88;1.80;;;;;;;;;;5040137;28;20037;-60
2022/02/18 00:18:03;;;;;;;2.60;1.73;;;;;;;;;;5045903;28;20127;-59
2022/02/18 00:20:30;;;;;;;4.45;2.30;;;;;;;;;;5035931;28;20059;-60
2022/02/18 00:22:56;;;;;;;4.38;2.03;;;;;;;;;;5035701;28;20028;-60
2022/02/18 00:25:22;;;;;;;4.95;2.20;;;;;;;;;;5048046;28;20108;-60
2022/02/18 00:27:48;;;;;;;2.58;1.65;;;;;;;;;;5047477;28;20040;-60
2022/02/18 00:30:14;;;;;;;3.22;1.80;;;;;;;;;;5046203;28;20801;-60
2022/02/18 00:32:40;;;;;;;3.78;2.20;;;;;;;;;;5045365;28;20031;-59
2022/02/18 00:35:07;;;;;;;3.85;2.25;;;;;;;;;;5046868;28;20029;-60
2022/02/18 00:37:34;;;;;;;3.33;2.00;;;;;;;;;;5047369;28;20036;-60
2022/02/18 00:40:00;;;;;;;5.35;2.55;;;;;;;;;;5045839;28;20100;-60
2022/02/18 00:42:26;;;;;;;4.65;2.72;;;;;;;;;;5047327;28;20660;-60
2022/02/18 00:44:53;;;;;;;5.85;2.65;;;;;;;;;;5046375;28;20040;-60
2022/02/18 00:47:19;;;;;;;3.45;2.10;;;;;;;;;;5047039;28;20400;-60
2022/02/18 00:49:46;;;;;;;2.92;2.00;;;;;;;;;;5043367;28;20064;-60
2022/02/18 00:52:13;;;;;;;4.13;2.10;;;;;;;;;;5028732;28;20057;-59
2022/02/18 00:54:39;;;;;;;3.83;1.90;;;;;;;;;;5035511;28;20036;-60
2022/02/18 00:57:05;;;;;;;4.18;1.60;;;;;;;;;;5032067;28;20098;-60
2022/02/18 00:59:31;;;;;;;3.42;1.90;;;;;;;;;;5045169;28;20484;-60
2022/02/18 01:01:57;;;;;;;4.07;1.92;;;;;;;;;;5048857;28;20090;-60
2022/02/18 01:04:23;;;;;;;3.38;2.00;;;;;;;;;;5066096;28;20043;-59
2022/02/18 01:06:49;;;;;;;5.05;2.03;;;;;;;;;;5057334;28;20029;-60
2022/02/18 01:09:15;;;;;;;5.35;2.20;;;;;;;;;;5040986;28;20443;-60
2022/02/18 01:11:41;;;;;;;4.65;2.20;;;;;;;;;;5046630;28;20389;-59
2022/02/18 01:14:07;;;;;;;4.05;2.42;;;;;;;;;;5044144;28;20087;-60
2022/02/18 01:16:34;;;;;;;5.65;2.63;;;;;;;;;;5045004;28;20032;-60
2022/02/18 01:19:00;;;;;;;4.72;2.70;;;;;;;;;;5044771;28;20477;-60
2022/02/18 01:21:26;;;;;;;5.47;2.78;;;;;;;;;;5043983;28;20425;-60
2022/02/18 01:23:52;;;;;;;5.18;2.63;;;;;;;;;;5045071;28;20053;-59
2022/02/18 01:26:19;;;;;;;8.40;3.58;;;;;;;;;;5044965;28;20032;-60
2022/02/18 01:28:45;;;;;;;6.47;3.50;;;;;;;;;;5044479;28;20036;-60
2022/02/18 01:31:13;;;;;;;5.63;2.72;;;;;;;;;;5045112;28;20028;-60
2022/02/18 01:33:39;;;;;;;4.93;2.58;;;;;;;;;;5044370;28;20052;-60
2022/02/18 01:36:05;;;;;;;6.05;2.88;;;;;;;;;;5043087;28;20047;-60
2022/02/18 01:38:31;;;;;;;6.55;3.78;;;;;;;;;;5043541;28;20484;-60
2022/02/18 01:40:57;;;;;;;6.78;4.03;;;;;;;;;;5044883;28;20029;-60
2022/02/18 01:43:23;;;;;;;7.53;3.97;;;;;;;;;;5045400;28;20036;-60
2022/02/18 01:45:49;;;;;;;6.07;3.72;;;;;;;;;;5044863;28;20100;-60
2022/02/18 01:48:15;;;;;;;5.20;2.72;;;;;;;;;;5044688;28;20615;-60
2022/02/18 01:50:43;;;;;;;6.47;3.30;;;;;;;;;;5044248;28;20060;-60
2022/02/18 01:53:12;;;;;;;5.70;3.22;;;;;;;;;;5044826;28;20040;-60
2022/02/18 01:55:39;;;;;;;5.30;3.10;;;;;;;;;;5041451;28;20021;-60
2022/02/18 01:58:07;;;;;;;6.68;2.63;;;;;;;;;;5044729;28;20033;-60
2022/02/18 02:00:34;;;;;;;4.00;2.40;;;;;;;;;;5043383;28;20051;-60
2022/02/18 02:03:04;;;;;;;6.18;2.60;;;;;;;;;;5044390;28;20119;-59
2022/02/18 02:05:30;;;;;;;4.22;2.45;;;;;;;;;;5044712;28;20057;-60
2022/02/18 02:07:59;;;;;;;4.03;2.50;;;;;;;;;;5030280;28;20041;-59
2022/02/18 02:10:26;;;;;;;5.55;2.78;;;;;;;;;;5030983;28;20506;-60
2022/02/18 02:12:53;;;;;;;3.35;2.17;;;;;;;;;;5044535;28;20040;-60
2022/02/18 02:15:22;;;;;;;3.50;1.90;;;;;;;;;;5045001;28;20504;-60
2022/02/18 02:17:48;;;;;;;4.47;1.98;;;;;;;;;;5044100;28;20029;-60
2022/02/18 02:20:16;;;;;;;2.85;1.70;;;;;;;;;;5044537;28;20029;-60
2022/02/18 02:22:44;;;;;;;2.88;1.38;;;;;;;;;;5044245;28;20025;-60
2022/02/18 02:25:10;;;;;;;1.98;1.27;;;;;;;;;;5042215;28;20017;-60
2022/02/18 02:27:36;;;;;;;2.63;1.55;;;;;;;;;;5042705;28;20021;-60
2022/02/18 02:30:03;;;;;;;2.72;1.38;;;;;;;;;;5044191;28;20021;-60
2022/02/18 02:32:29;;;;;;;2.38;1.25;;;;;;;;;;5043966;28;20040;-59
2022/02/18 02:34:55;;;;;;;1.23;0.90;;;;;;;;;;5044048;28;20021;-60
2022/02/18 02:37:22;;;;;;;2.72;1.20;;;;;;;;;;5044949;28;20112;-60
2022/02/18 02:39:48;;;;;;;2.40;1.42;;;;;;;;;;5030802;28;20055;-60
2022/02/18 02:42:14;;;;;;;2.10;0.93;;;;;;;;;;5024892;28;20727;-60
2022/02/18 02:44:41;;;;;;;2.88;1.38;;;;;;;;;;5039789;28;20118;-59
2022/02/18 02:47:07;;;;;;;1.70;1.02;;;;;;;;;;5044209;28;20032;-59
2022/02/18 02:49:33;;;;;;;2.08;1.02;;;;;;;;;;5043134;28;20017;-59
2022/02/18 02:51:59;;;;;;;2.40;1.10;;;;;;;;;;5044227;28;20117;-59
2022/02/18 02:54:25;;;;;;;2.03;1.23;;;;;;;;;;5043856;28;20526;-59
2022/02/18 02:56:56;;;;;;;2.40;1.27;;;;;;;;;;5044476;28;20052;-60
2022/02/18 02:59:23;;;;;;;3.17;1.70;;;;;;;;;;5045436;28;20017;-59
2022/02/18 03:01:49;;;;;;;3.63;1.65;;;;;;;;;;5047040;28;20036;-60
2022/02/18 03:04:15;;;;;;;3.90;1.50;;;;;;;;;;5047632;28;20091;-60
2022/02/18 03:06:41;;;;;;;2.00;1.38;;;;;;;;;;5047510;28;20021;-60
2022/02/18 03:09:10;;;;;;;2.13;1.30;;;;;;;;;;5047605;28;20029;-60
2022/02/18 03:11:36;;;;;;;1.90;1.42;;;;;;;;;;5038195;28;20572;-59
2022/02/18 03:14:03;;;;;;;2.28;1.20;;;;;;;;;;5026991;28;20029;-60
2022/02/18 03:16:29;;;;;;;2.47;1.38;;;;;;;;;;5039084;28;20033;-60
2022/02/18 03:18:55;;;;;;;3.47;1.45;;;;;;;;;;5047236;28;20024;-60
2022/02/18 03:21:21;;;;;;;2.75;1.15;;;;;;;;;;5047920;28;20488;-60
2022/02/18 03:23:47;;;;;;;4.88;1.35;;;;;;;;;;5047038;28;20025;-60
2022/02/18 03:26:15;;;;;;;2.33;1.10;;;;;;;;;;5046310;28;20113;-60
2022/02/18 03:28:41;;;;;;;2.92;1.25;;;;;;;;;;5047429;28;20048;-60
2022/02/18 03:31:08;;;;;;;2.53;1.30;;;;;;;;;;5047075;28;20053;-59
2022/02/18 03:33:36;;;;;;;2.45;0.95;;;;;;;;;;5047077;28;20078;-60
2022/02/18 03:36:03;;;;;;;2.40;1.08;;;;;;;;;;5039702;28;20041;-59
2022/02/18 03:38:29;;;;;;;3.60;1.30;;;;;;;;;;5027111;28;20026;-60
2022/02/18 03:40:56;;;;;;;1.70;1.10;;;;;;;;;;5026542;28;20416;-60
2022/02/18 03:43:22;;;;;;;3.95;1.67;;;;;;;;;;5027564;28;20099;-59
2022/02/18 03:45:49;;;;;;;3.33;2.00;;;;;;;;;;5031809;28;20500;-59
2022/02/18 03:48:15;;;;;;;4.60;1.98;;;;;;;;;;5047020;28;20037;-59
2022/02/18 03:50:41;;;;;;;3.63;1.83;;;;;;;;;;5043908;28;20451;-60
2022/02/18 03:53:07;;;;;;;4.38;2.00;;;;;;;;;;5047081;28;20021;-60
2022/02/18 03:55:33;;;;;;;4.85;2.00;;;;;;;;;;5043924;28;20024;-60
2022/02/18 03:57:59;;;;;;;3.45;1.98;;;;;;;;;;5026487;28;20025;-60
2022/02/18 04:00:25;;;;;;;2.33;1.58;;;;;;;;;;5026466;28;20049;-59
2022/02/18 04:02:52;;;;;;;2.13;1.33;;;;;;;;;;5026290;28;20017;-60
2022/02/18 04:05:18;;;;;;;2.42;1.38;;;;;;;;;;5038646;28;20037;-60
2022/02/18 04:07:44;;;;;;;2.95;1.50;;;;;;;;;;5046111;28;20040;-59
2022/02/18 04:10:10;;;;;;;2.75;1.58;;;;;;;;;;5045764;28;20025;-60
2022/02/18 04:12:37;;;;;;;3.38;1.75;;;;;;;;;;5046639;28;20022;-60
2022/02/18 04:15:03;;;;;;;3.25;1.67;;;;;;;;;;5044700;28;20061;-59
2022/02/18 04:17:29;;;;;;;3.83;1.42;;;;;;;;;;5046287;28;20700;-60
2022/02/18 04:19:56;;;;;;;2.42;1.20;;;;;;;;;;5044305;28;20116;-60
2022/02/18 04:22:23;;;;;;;2.60;1.50;;;;;;;;;;5044399;28;20025;-60
2022/02/18 04:24:50;;;;;;;4.30;1.85;;;;;;;;;;5044490;28;20397;-60
2022/02/18 04:27:16;;;;;;;3.10;1.63;;;;;;;;;;5046095;28;20078;-60
2022/02/18 04:29:43;;;;;;;2.92;1.50;;;;;;;;;;5045743;28;20030;-60
2022/02/18 04:32:09;;;;;;;3.65;1.20;;;;;;;;;;5045879;28;20025;-60
2022/02/18 04:34:35;;;;;;;2.22;1.20;;;;;;;;;;5030593;28;20425;-60
2022/02/18 04:37:01;;;;;;;2.13;1.30;;;;;;;;;;5024266;28;20476;-60
2022/02/18 04:39:27;;;;;;;2.90;1.70;;;;;;;;;;5025876;28;20025;-60
2022/02/18 04:41:53;;;;;;;3.20;1.63;;;;;;;;;;5025778;28;20043;-60
2022/02/18 04:44:19;;;;;;;3.65;1.98;;;;;;;;;;5026741;28;20127;-60
2022/02/18 04:46:46;;;;;;;3.25;1.75;;;;;;;;;;5045526;28;20459;-60
2022/02/18 04:49:12;;;;;;;3.85;1.88;;;;;;;;;;5045537;28;20512;-60
2022/02/18 04:51:38;;;;;;;3.42;1.50;;;;;;;;;;5044110;28;20090;-60
2022/02/18 04:54:05;;;;;;;2.75;1.40;;;;;;;;;;5044905;28;20079;-59
2022/02/18 04:56:31;;;;;;;3.95;1.70;;;;;;;;;;5045546;28;20027;-60
2022/02/18 04:58:57;;;;;;;3.15;1.40;;;;;;;;;;5045182;28;20025;-60
2022/02/18 05:01:23;;;;;;;2.38;1.13;;;;;;;;;;5045360;28;20138;-60
2022/02/18 05:03:50;;;;;;;1.52;1.10;;;;;;;;;;5043927;28;20037;-60
2022/02/18 05:06:16;;;;;;;3.33;1.55;;;;;;;;;;5040130;28;20033;-60
2022/02/18 05:08:42;;;;;;;2.15;1.30;;;;;;;;;;5044742;28;20085;-60
2022/02/18 05:11:09;;;;;;;1.90;1.50;;;;;;;;;;5043238;28;20037;-59
2022/02/18 05:13:35;;;;;;;2.95;1.50;;;;;;;;;;5045272;28;20037;-60
2022/02/18 05:16:02;;;;;;;2.45;1.40;;;;;;;;;;5043698;28;20033;-60
2022/02/18 05:18:28;;;;;;;4.93;1.73;;;;;;;;;;5028949;28;20033;-60
2022/02/18 05:20:54;;;;;;;6.05;1.90;;;;;;;;;;5024955;28;20406;-60
2022/02/18 05:23:21;;;;;;;4.07;1.95;;;;;;;;;;5024759;28;20033;-60
2022/02/18 05:25:47;;;;;;;5.03;2.05;;;;;;;;;;5024878;28;20061;-59
2022/02/18 05:28:15;;;;;;;4.13;1.98;;;;;;;;;;5037222;28;20063;-59
2022/02/18 05:30:41;;;;;;;4.85;2.08;;;;;;;;;;5044393;28;20032;-60
2022/02/18 05:33:07;;;;;;;5.25;2.28;;;;;;;;;;5045531;28;20305;-60
2022/02/18 05:35:33;;;;;;;4.50;2.15;;;;;;;;;;5040055;28;20393;-60
2022/02/18 05:37:59;;;;;;;2.97;1.70;;;;;;;;;;5024986;28;20068;-60
2022/02/18 05:40:26;;;;;;;4.53;2.08;;;;;;;;;;5025110;28;20117;-60
2022/02/18 05:42:52;;;;;;;3.15;2.08;;;;;;;;;;5024738;28;20052;-60
2022/02/18 05:45:20;;;;;;;5.07;2.30;;;;;;;;;;5024659;28;20061;-59
2022/02/18 05:47:47;;;;;;;3.95;2.20;;;;;;;;;;5024343;28;20026;-59
2022/02/18 05:50:14;;;;;;;4.43;2.25;;;;;;;;;;5024216;28;20039;-59
2022/02/18 05:52:41;;;;;;;3.85;1.90;;;;;;;;;;5024643;28;20028;-60
2022/02/18 05:55:07;;;;;;;3.33;1.80;;;;;;;;;;5025266;28;20065;-60
2022/02/18 05:57:34;;;;;;;4.80;1.98;;;;;;;;;;5025475;28;20025;-60
2022/02/18 06:00:00;;;;;;;3.35;1.88;;;;;;;;;;5044307;28;20553;-60
2022/02/18 06:02:26;;;;;;;3.05;1.73;;;;;;;;;;5043419;28;20104;-60
2022/02/18 06:04:52;;;;;;;3.42;2.10;;;;;;;;;;5044071;28;20184;-59
2022/02/18 06:07:18;;;;;;;3.88;2.15;;;;;;;;;;5044586;28;20063;-60
2022/02/18 06:09:44;;;;;;;4.60;2.10;;;;;;;;;;5043077;28;20509;-60
2022/02/18 06:12:11;;;;;;;4.10;1.83;;;;;;;;;;5033400;28;20033;-61
2022/02/18 06:14:37;;;;;;;2.08;1.33;;;;;;;;;;5024613;28;20029;-60
2022/02/18 06:17:09;;;;;;;4.05;1.88;;;;;;;;;;5025047;28;20017;-60
2022/02/18 06:19:35;;;;;;;3.15;1.67;;;;;;;;;;5025126;28;20025;-60
2022/02/18 06:22:01;;;;;;;1.88;1.42;;;;;;;;;;5027042;28;20113;-60
2022/02/18 06:24:27;;;;;;;2.70;1.60;;;;;;;;;;5024548;28;20037;-60
2022/02/18 06:26:53;;;;;;;2.72;1.30;;;;;;;;;;5024551;28;20389;-60
2022/02/18 06:29:19;;;;;;;3.28;1.73;;;;;;;;;;5042442;28;20115;-60
2022/02/18 06:31:46;;;;;;;3.28;1.88;;;;;;;;;;5042982;28;20562;-59
2022/02/18 06:34:13;;;;;;;4.00;1.80;;;;;;;;;;5045761;28;20057;-59
2022/02/18 06:36:39;;;;;;;4.72;2.15;;;;;;;;;;5032121;28;20060;-60
2022/02/18 06:39:07;;;;;;;4.00;1.83;;;;;;;;;;5028972;28;20456;-60
2022/02/18 06:41:33;;;;;;;3.22;1.95;;;;;;;;;;5030323;28;20018;-60
2022/02/18 06:43:59;;;;;;;5.00;1.85;;;;;;;;;;5047547;28;20412;-60
2022/02/18 06:46:25;;;;;;;3.25;1.80;;;;;;;;;;5048021;28;20029;-60
2022/02/18 06:48:51;;;;;;;2.90;1.52;;;;;;;;;;5047464;28;20068;-60
2022/02/18 06:51:17;;;;;;;2.65;1.30;;;;;;;;;;5047744;28;20027;-60
2022/02/18 06:53:43;;;;;;;2.47;1.45;;;;;;;;;;5027374;28;20520;-60
2022/02/18 06:56:10;;;;;;;3.35;1.40;;;;;;;;;;5036095;28;20025;-60
2022/02/18 06:58:37;;;;;;;3.28;1.83;;;;;;;;;;5048367;28;20395;-60
2022/02/18 07:01:04;;;;;;;6.13;2.00;;;;;;;;;;5047422;28;20408;-60
2022/02/18 07:03:30;;;;;;;2.63;1.55;;;;;;;;;;5043298;28;20037;-60
2022/02/18 07:05:57;;;;;;;3.95;1.77;;;;;;;;;;5028057;28;20539;-60
2022/02/18 07:08:23;;;;;;;3.90;1.50;;;;;;;;;;5028484;28;20029;-60
2022/02/18 07:10:49;;;;;;;2.35;1.52;;;;;;;;;;5027385;28;20382;-60
2022/02/18 07:13:15;;;;;;;2.33;1.60;;;;;;;;;;5027436;28;20284;-60
2022/02/18 07:15:41;;;;;;;2.88;1.65;;;;;;;;;;5047023;28;20025;-60
2022/02/18 07:18:07;;;;;;;3.20;1.88;;;;;;;;;;5046248;28;20544;-60
2022/02/18 07:20:34;;;;;;;3.03;1.50;;;;;;;;;;5046449;28;20029;-60
2022/02/18 07:23:00;;;;;;;3.50;1.65;;;;;;;;;;5047073;28;20021;-60
2022/02/18 07:25:27;;;;;;;2.95;1.52;;;;;;;;;;5047356;28;20095;-60
2022/02/18 07:27:54;;;;;;;2.40;1.55;;;;;;;;;;5035681;28;20084;-60
2022/02/18 07:30:20;;;;;;;2.72;1.35;;;;;;;;;;5028371;28;20522;-60
2022/02/18 07:32:46;;;;;;;2.20;1.55;;;;;;;;;;5047415;28;20040;-59
2022/02/18 07:35:13;;;;;;;3.63;1.67;;;;;;;;;;5048227;28;20029;-61
2022/02/18 07:37:39;;;;;;;2.50;1.48;;;;;;;;;;5048369;28;20071;-60
2022/02/18 07:40:05;;;;;;;3.85;1.85;;;;;;;;;;5049147;28;20047;-59
2022/02/18 07:42:31;;;;;;;2.20;1.60;;;;;;;;;;5045202;28;20044;-60
2022/02/18 07:44:57;;;;;;;2.67;1.67;;;;;;;;;;5047671;28;20024;-59
2022/02/18 07:47:24;;;;;;;2.75;1.90;;;;;;;;;;5048056;28;20496;-59
2022/02/18 07:49:50;;;;;;;2.17;1.50;;;;;;;;;;5047783;28;20031;-59
2022/02/18 07:52:16;;;;;;;3.33;2.08;;;;;;;;;;5034535;28;20552;-60
2022/02/18 07:54:43;;;;;;;2.63;1.85;;;;;;;;;;5027866;28;20036;-59
2022/02/18 07:57:09;;;;;;;3.55;1.70;;;;;;;;;;5028238;28;20044;-59
2022/02/18 07:59:35;;;;;;;3.30;1.67;;;;;;;;;;5028724;28;20116;-59
2022/02/18 08:02:01;;;;;;;3.15;1.70;;;;;;;;;;5029151;28;20440;-59
2022/02/18 08:04:27;;;;;;;2.47;1.33;;;;;;;;;;5043689;28;20039;-60
2022/02/18 08:06:53;;;;;;;2.67;1.48;;;;;;;;;;5032142;28;20154;-59
2022/02/18 08:09:20;;;;;;;2.10;1.50;;;;;;;;;;5034690;28;20036;-59
2022/02/18 08:11:46;;;;;;;2.90;1.80;;;;;;;;;;5046777;28;20509;-59
2022/02/18 08:14:12;;;;;;;1.85;1.30;;;;;;;;;;5047695;28;20059;-59
2022/02/18 08:16:38;;;;;;;1.60;1.10;;;;;;;;;;5039317;28;20051;-59
2022/02/18 08:19:06;;;;;;;2.38;1.27;;;;;;;;;;5044774;28;20029;-59
2022/02/18 08:21:32;;;;;;;2.00;1.33;;;;;;;;;;5028922;28;20025;-58
2022/02/18 08:23:59;;;;;;;2.42;1.23;;;;;;;;;;5037584;28;20036;-60
2022/02/18 08:26:25;;;;;;;1.95;1.27;;;;;;;;;;5039773;28;20211;-59
2022/02/18 08:28:51;;;;;;;2.33;1.48;;;;;;;;;;5035112;28;20029;-59
2022/02/18 08:31:17;;;;;;;1.77;1.35;;;;;;;;;;5045253;28;20040;-59
2022/02/18 08:33:43;;;;;;;3.83;1.50;;;;;;;;;;5047354;28;20520;-59
2022/02/18 08:36:10;;;;;;;2.03;1.15;;;;;;;;;;5039302;28;20029;-60
2022/02/18 08:38:36;;;;;;;1.60;1.05;;;;;;;;;;5030995;28;20021;-60
2022/02/18 08:41:02;;;;;;;1.45;1.00;;;;;;;;;;5030014;28;20405;-59
2022/02/18 08:43:28;;;;;;;2.13;1.20;;;;;;;;;;5052779;28;20109;-60
2022/02/18 08:45:55;;;;;;;2.47;1.20;;;;;;;;;;5037460;28;20429;-59
2022/02/18 08:48:21;;;;;;;2.03;1.05;;;;;;;;;;5032179;28;20036;-59
2022/02/18 08:50:47;;;;;;;1.60;0.93;;;;;;;;;;5032919;28;20080;-59
2022/02/18 08:53:13;;;;;;;1.60;1.20;;;;;;;;;;5066380;28;20645;-59
2022/02/18 08:55:39;;;;;;;0.93;0.80;;;;;;;;;;5052517;28;20033;-59
2022/02/18 08:58:06;;;;;;;1.95;0.80;;;;;;;;;;5033023;28;20378;-60
2022/02/18 09:00:32;;;;;;;1.25;1.00;;;;;;;;;;5037917;28;20025;-61
2022/02/18 09:02:58;;;;;;;1.50;0.70;;;;;;;;;;5036742;28;20021;-60
2022/02/18 09:05:24;;;;;;;1.02;0.80;;;;;;;;;;5046247;28;20028;-60
2022/02/18 09:07:50;;;;;;;2.58;1.10;;;;;;;;;;5040697;28;20029;-61
2022/02/18 09:10:16;;;;;;;1.48;1.00;;;;;;;;;;5040564;28;20054;-59
2022/02/18 09:12:43;;;;;;;1.73;1.00;;;;;;;;;;5049571;28;20104;-59
2022/02/18 09:15:10;;;;;;;0.95;0.82;;;;;;;;;;5051311;28;20074;-59
2022/02/18 09:17:36;;;;;;;1.02;0.90;;;;;;;;;;5028750;28;20025;-60
2022/02/18 09:20:04;;;;;;;1.75;0.55;;;;;;;;;;5025912;28;20032;-60
2022/02/18 09:22:31;;;;;;;0.90;0.55;;;;;;;;;;5038040;28;20044;-61
2022/02/18 09:24:57;;;;;;;1.10;0.70;;;;;;;;;;5028736;28;20064;-60
2022/02/18 09:27:23;;;;;;;1.33;0.77;;;;;;;;;;5032844;28;20496;-60
2022/02/18 09:29:49;;;;;;;1.05;0.63;;;;;;;;;;5038026;28;20029;-60
2022/02/18 09:32:15;;;;;;;0.68;0.55;;;;;;;;;;5043590;28;20025;-59
2022/02/18 09:34:43;;;;;;;0.50;0.50;;;;;;;;;;5032489;28;20056;-61
2022/02/18 09:37:15;;;;;;;0.70;0.60;;;;;;;;;;5039425;28;20029;-60
2022/02/18 09:39:41;;;;;;;1.60;0.52;;;;;;;;;;5041674;28;20115;-60
2022/02/18 09:42:08;;;;;;;0.82;0.52;;;;;;;;;;5043031;28;20029;-60
2022/02/18 09:44:36;;;;;;;1.25;0.43;;;;;;;;;;5044865;28;20029;-60
2022/02/18 09:47:02;;;;;;;1.77;0.63;;;;;;;;;;5044432;28;20028;-60
2022/02/18 09:49:29;;;;;;;1.48;0.68;;;;;;;;;;5045345;28;20547;-60
2022/02/18 09:51:55;;;;;;;3.25;1.23;;;;;;;;;;5037125;28;20439;-60
2022/02/18 09:54:26;;;;;;;2.60;0.88;;;;;;;;;;5045894;28;20496;-60
2022/02/18 09:56:53;;;;;;;1.70;0.63;;;;;;;;;;5043473;28;20492;-60
2022/02/18 09:59:19;;;;;;;1.80;0.90;;;;;;;;;;5025932;28;20032;-60
2022/02/18 10:01:45;;;;;;;1.35;0.80;;;;;;;;;;5029695;28;20096;-60
2022/02/18 10:04:11;;;;;;;2.17;0.80;;;;;;;;;;5025934;28;20029;-60
2022/02/18 10:06:38;;;;;;;3.10;1.08;;;;;;;;;;5026170;28;20112;-60
2022/02/18 10:09:04;;;;;;;1.25;0.98;;;;;;;;;;5028275;28;20514;-60
2022/02/18 10:11:49;;;;;;;3.92;0.98;;;;;;;;;;5029764;28;20029;-60
2022/02/18 10:14:15;;;;;;;2.83;1.00;;;;;;;;;;5029895;28;20044;-60
2022/02/18 10:16:41;;;;;;;1.20;0.90;;;;;;;;;;5029654;28;20527;-59
2022/02/18 10:19:13;;;;;;;1.30;0.70;;;;;;;;;;5048199;28;20031;-60
2022/02/18 10:21:42;;;;;;;4.18;1.17;;;;;;;;;;5049501;28;20013;-61
2022/02/18 10:24:15;;;;;;;1.77;1.05;;;;;;;;;;5049547;28;20032;-60
2022/02/18 10:26:42;;;;;;;1.25;0.80;;;;;;;;;;5049178;28;20025;-60
2022/02/18 10:29:09;;;;;;;1.77;0.80;;;;;;;;;;5039528;28;20042;-60
2022/02/18 10:31:35;;;;;;;1.77;0.90;;;;;;;;;;5030037;28;20025;-60
2022/02/18 10:34:02;;;;;;;0.70;0.60;;;;;;;;;;5029167;28;20099;-61
2022/02/18 10:36:37;;;;;;;2.40;0.90;;;;;;;;;;5029652;28;20448;-60
2022/02/18 10:39:22;;;;;;;2.53;0.80;;;;;;;;;;5029846;28;20128;-60
2022/02/18 10:41:53;;;;;;;1.67;0.73;;;;;;;;;;5028769;28;20025;-61
2022/02/18 10:44:19;;;;;;;1.05;0.63;;;;;;;;;;5042629;28;20035;-60
2022/02/18 10:46:55;;;;;;;1.08;0.90;;;;;;;;;;5048687;28;20039;-60
2022/02/18 10:49:24;;;;;;;2.38;0.80;;;;;;;;;;5047633;28;20419;-60
2022/02/18 10:51:50;;;;;;;0.68;0.60;;;;;;;;;;5048687;28;20028;-60
2022/02/18 10:54:16;;;;;;;2.03;0.75;;;;;;;;;;5048930;28;20099;-61
2022/02/18 10:56:43;;;;;;;3.85;0.82;;;;;;;;;;5048795;28;20508;-60
2022/02/18 10:59:09;;;;;;;1.48;0.82;;;;;;;;;;5048952;28;20028;-60
2022/02/18 11:01:43;;;;;;;2.50;0.90;;;;;;;;;;5040770;28;20030;-60
2022/02/18 11:04:10;;;;;;;3.33;0.80;;;;;;;;;;5028806;28;20033;-60
2022/02/18 11:06:37;;;;;;;2.85;1.00;;;;;;;;;;5029720;28;20040;-61
2022/02/18 11:09:12;;;;;;;3.45;1.13;;;;;;;;;;5028528;28;20041;-61
2022/02/18 11:11:40;;;;;;;1.52;0.70;;;;;;;;;;5035490;28;20060;-60
2022/02/18 11:14:08;;;;;;;3.40;0.90;;;;;;;;;;5049002;28;20061;-60
2022/02/18 11:16:35;;;;;;;3.65;0.90;;;;;;;;;;5049576;28;20439;-60
2022/02/18 11:19:01;;;;;;;2.42;1.17;;;;;;;;;;5043756;28;20389;-60
2022/02/18 11:21:28;;;;;;;3.35;0.70;;;;;;;;;;5047441;28;20563;-61
2022/02/18 11:23:55;;;;;;;1.08;0.60;;;;;;;;;;5048194;28;20079;-60
2022/02/18 11:26:22;;;;;;;1.23;0.70;;;;;;;;;;5046516;28;20029;-61
2022/02/18 11:28:49;;;;;;;2.80;0.68;;;;;;;;;;5048346;28;20518;-60
2022/02/18 11:31:15;;;;;;;2.22;0.70;;;;;;;;;;5048462;28;20032;-60
2022/02/18 11:34:00;;;;;;;3.88;0.80;;;;;;;;;;5048137;28;20496;-60
2022/02/18 11:36:28;;;;;;;1.75;0.82;;;;;;;;;;5047573;28;20511;-60
2022/02/18 11:38:55;;;;;;;3.72;0.93;;;;;;;;;;5048068;28;20074;-60
2022/02/18 11:41:30;;;;;;;3.47;1.00;;;;;;;;;;5029216;28;20071;-60
2022/02/18 11:43:58;;;;;;;5.38;0.88;;;;;;;;;;5028220;28;20030;-60
2022/02/18 11:46:25;;;;;;;1.73;0.80;;;;;;;;;;5039837;28;20439;-60
2022/02/18 11:48:53;;;;;;;5.32;0.80;;;;;;;;;;5027930;28;20061;-60
2022/02/18 11:51:25;;;;;;;4.07;0.85;;;;;;;;;;5042753;28;20028;-60
2022/02/18 11:53:51;;;;;;;8.90;1.35;;;;;;;;;;5047750;28;20025;-60
2022/02/18 11:56:39;;;;;;;2.22;0.85;;;;;;;;;;5031654;28;20440;-59
2022/02/18 11:59:05;;;;;;;1.75;0.70;;;;;;;;;;5037593;28;20021;-59
2022/02/18 12:01:50;;;;;;;4.75;0.90;;;;;;;;;;5030095;28;20033;-60
2022/02/18 12:04:17;;;;;;;2.40;0.68;;;;;;;;;;5027034;28;20053;-60
2022/02/18 12:06:43;;;;;;;4.13;1.42;;;;;;;;;;5028527;28;20501;-61
2022/02/18 12:09:09;;;;;;;2.85;1.15;;;;;;;;;;5027874;28;20508;-60
2022/02/18 12:11:43;;;;;;;3.70;0.88;;;;;;;;;;5028158;28;20281;-60
2022/02/18 12:14:11;;;;;;;4.63;1.30;;;;;;;;;;5027595;28;20033;-59
2022/02/18 12:16:39;;;;;;;4.25;1.27;;;;;;;;;;5029285;28;20083;-60
2022/02/18 12:19:15;;;;;;;3.08;0.98;;;;;;;;;;5028309;28;20040;-60
2022/02/18 12:22:01;;;;;;;4.75;1.10;;;;;;;;;;5027327;28;20036;-60
2022/02/18 12:24:33;;;;;;;3.63;1.10;;;;;;;;;;5028581;28;20035;-60
2022/02/18 12:27:18;;;;;;;3.63;1.00;;;;;;;;;;5036091;28;20029;-59
2022/02/18 12:29:44;;;;;;;2.92;0.80;;;;;;;;;;5047147;28;20036;-59
2022/02/18 12:32:10;;;;;;;2.55;0.70;;;;;;;;;;5046607;28;20166;-60
2022/02/18 12:34:37;;;;;;;0.95;0.80;;;;;;;;;;5046774;28;20029;-59
2022/02/18 12:37:05;;;;;;;2.03;1.02;;;;;;;;;;5044609;28;20028;-59
2022/02/18 12:39:37;;;;;;;2.53;0.93;;;;;;;;;;5028371;28;20025;-59
2022/02/18 12:42:07;;;;;;;3.13;1.00;;;;;;;;;;5027132;28;20025;-59
2022/02/18 12:44:33;;;;;;;1.65;0.80;;;;;;;;;;5027092;28;20041;-60
2022/02/18 12:46:59;;;;;;;1.67;0.73;;;;;;;;;;5028031;28;20364;-59
2022/02/18 12:49:41;;;;;;;2.25;0.93;;;;;;;;;;5037822;28;20104;-59
2022/02/18 12:52:08;;;;;;;4.53;0.88;;;;;;;;;;5027915;28;20025;-59
2022/02/18 12:54:45;;;;;;;3.22;0.80;;;;;;;;;;5027289;28;20037;-60
2022/02/18 12:57:15;;;;;;;1.42;0.80;;;;;;;;;;5027020;28;20540;-59
2022/02/18 12:59:44;;;;;;;4.00;1.02;;;;;;;;;;5026427;28;20531;-59
2022/02/18 13:02:12;;;;;;;3.70;1.25;;;;;;;;;;5027828;28;20029;-59
2022/02/18 13:04:38;;;;;;;1.45;0.88;;;;;;;;;;5026588;28;20512;-59
2022/02/18 13:07:05;;;;;;;4.22;0.90;;;;;;;;;;5034427;28;20114;-59
2022/02/18 13:09:32;;;;;;;3.22;1.20;;;;;;;;;;5046416;28;20102;-59
2022/02/18 13:11:59;;;;;;;3.58;1.25;;;;;;;;;;5038027;28;20041;-59
2022/02/18 13:14:25;;;;;;;3.67;1.27;;;;;;;;;;5031094;28;20484;-59
2022/02/18 13:16:51;;;;;;;1.52;1.00;;;;;;;;;;5027377;28;20087;-59
2022/02/18 13:19:17;;;;;;;1.48;0.93;;;;;;;;;;5027695;28;20075;-60
2022/02/18 13:21:43;;;;;;;1.55;0.90;;;;;;;;;;5030815;28;20569;-61
2022/02/18 13:24:09;;;;;;;2.40;0.98;;;;;;;;;;5047554;28;20559;-61
2022/02/18 13:26:35;;;;;;;3.03;0.77;;;;;;;;;;5048049;28;20397;-60
2022/02/18 13:29:02;;;;;;;1.85;0.90;;;;;;;;;;5047424;28;20543;-60
2022/02/18 13:31:28;;;;;;;1.67;0.80;;;;;;;;;;5047601;28;20039;-60
2022/02/18 13:33:54;;;;;;;2.88;1.10;;;;;;;;;;5046393;28;20033;-61
2022/02/18 13:36:28;;;;;;;1.52;0.90;;;;;;;;;;5046985;28;20029;-60
2022/02/18 13:38:59;;;;;;;3.05;1.20;;;;;;;;;;5044645;28;20075;-61
2022/02/18 13:41:26;;;;;;;2.55;1.17;;;;;;;;;;5036512;28;20029;-60
2022/02/18 13:43:59;;;;;;;2.10;1.38;;;;;;;;;;5025740;28;20034;-61
2022/02/18 13:46:33;;;;;;;2.78;1.38;;;;;;;;;;5035324;28;20083;-60
2022/02/18 13:49:00;;;;;;;2.37;1.13;;;;;;;;;;5027413;28;20509;-60
2022/02/18 13:51:28;;;;;;;3.08;1.38;;;;;;;;;;5042668;28;20059;-60
2022/02/18 13:53:55;;;;;;;1.55;0.90;;;;;;;;;;5043868;28;20514;-60
2022/02/18 13:56:22;;;;;;;2.45;0.90;;;;;;;;;;5045865;28;20104;-60
2022/02/18 13:58:49;;;;;;;1.30;0.90;;;;;;;;;;5045845;28;20057;-61
2022/02/18 14:01:15;;;;;;;2.95;0.98;;;;;;;;;;5044524;28;20033;-60
2022/02/18 14:03:53;;;;;;;3.00;0.90;;;;;;;;;;5037471;28;20029;-60
2022/02/18 14:06:19;;;;;;;1.63;0.93;;;;;;;;;;5037058;28;20102;-60
2022/02/18 14:08:55;;;;;;;1.67;1.00;;;;;;;;;;5046518;28;20040;-60
2022/02/18 14:11:21;;;;;;;1.67;0.90;;;;;;;;;;5045674;28;20131;-60
2022/02/18 14:13:47;;;;;;;1.92;1.00;;;;;;;;;;5032083;28;20037;-61
2022/02/18 14:16:15;;;;;;;1.67;1.00;;;;;;;;;;5031113;28;20570;-62
2022/02/18 14:18:55;;;;;;;1.23;0.93;;;;;;;;;;5026711;28;20025;-62
2022/02/18 14:21:22;;;;;;;1.77;0.90;;;;;;;;;;5045846;28;20334;-62
2022/02/18 14:23:49;;;;;;;1.42;0.98;;;;;;;;;;5041197;28;20036;-62
2022/02/18 14:26:16;;;;;;;1.63;0.70;;;;;;;;;;5033674;28;20416;-62
2022/02/18 14:28:45;;;;;;;1.45;0.93;;;;;;;;;;5045515;28;20100;-62
2022/02/18 14:31:26;;;;;;;3.97;0.95;;;;;;;;;;5045552;28;20033;-62
2022/02/18 14:33:58;;;;;;;5.05;1.30;;;;;;;;;;5045223;28;20083;-62
2022/02/18 14:36:37;;;;;;;1.48;0.75;;;;;;;;;;5045441;28;20411;-63
2022/02/18 14:39:06;;;;;;;1.42;0.77;;;;;;;;;;5045277;28;20029;-62
2022/02/18 14:41:33;;;;;;;3.67;0.90;;;;;;;;;;5025570;28;20025;-62
2022/02/18 14:44:01;;;;;;;1.42;0.82;;;;;;;;;;5025432;28;20033;-61